sensor_id;sensor_type;location;lat;lon;timestamp;P1;durP1;ratioP1;P2;durP2;ratioP2
56830;SDS011;42713;42.676;23.352;2023-09-07T00:05:54;15.35;;;7.45;;
56830;SDS011;42713;42.676;23.352;2023-09-07T00:12:39;15.65;;;7.30;;
56830;SDS011;42713;42.676;23.352;2023-09-07T00:18:59;12.43;;;7.50;;
56830;SDS011;42713;42.676;23.352;2023-09-07T00:27:03;11.65;;;7.82;;
56830;SDS011;42713;42.676;23.352;2023-09-07T00:29:54;12.43;;;7.90;;
56830;SDS011;42713;42.676;23.352;2023-09-07T00:32:56;12.60;;;7.65;;
56830;SDS011;42713;42.676;23.352;2023-09-07T00:39:03;13.23;;;7.80;;
56830;SDS011;42713;42.676;23.352;2023-09-07T00:46:29;13.02;;;7.45;;
56830;SDS011;42713;42.676;23.352;2023-09-07T00:49:24;14.13;;;7.63;;
56830;SDS011;42713;42.676;23.352;2023-09-07T00:52:22;13.40;;;7.78;;
56830;SDS011;42713;42.676;23.352;2023-09-07T00:58:06;11.10;;;7.50;;
56830;SDS011;42713;42.676;23.352;2023-09-07T01:04:28;14.60;;;8.32;;
56830;SDS011;42713;42.676;23.352;2023-09-07T01:07:18;14.05;;;8.48;;
56830;SDS011;42713;42.676;23.352;2023-09-07T01:10:33;14.68;;;8.48;;
56830;SDS011;42713;42.676;23.352;2023-09-07T01:13:27;16.67;;;8.63;;
56830;SDS011;42713;42.676;23.352;2023-09-07T01:16:33;14.35;;;8.80;;
56830;SDS011;42713;42.676;23.352;2023-09-07T01:19:14;17.25;;;9.15;;
56830;SDS011;42713;42.676;23.352;2023-09-07T01:29:21;16.58;;;9.57;;
56830;SDS011;42713;42.676;23.352;2023-09-07T01:32:15;16.63;;;9.85;;
56830;SDS011;42713;42.676;23.352;2023-09-07T01:35:49;16.83;;;9.32;;
56830;SDS011;42713;42.676;23.352;2023-09-07T01:38:17;16.00;;;9.43;;
56830;SDS011;42713;42.676;23.352;2023-09-07T01:48:48;14.10;;;9.50;;
56830;SDS011;42713;42.676;23.352;2023-09-07T01:51:23;16.40;;;10.23;;
56830;SDS011;42713;42.676;23.352;2023-09-07T01:54:29;17.85;;;9.70;;
56830;SDS011;42713;42.676;23.352;2023-09-07T02:03:38;18.70;;;9.93;;
56830;SDS011;42713;42.676;23.352;2023-09-07T02:07:03;19.70;;;10.15;;
56830;SDS011;42713;42.676;23.352;2023-09-07T02:16:52;18.25;;;10.35;;
56830;SDS011;42713;42.676;23.352;2023-09-07T03:01:50;17.63;;;11.70;;
56830;SDS011;42713;42.676;23.352;2023-09-07T04:10:37;25.40;;;15.70;;
56830;SDS011;42713;42.676;23.352;2023-09-07T04:17:05;22.92;;;15.65;;
56830;SDS011;42713;42.676;23.352;2023-09-07T04:19:43;21.60;;;15.43;;
56830;SDS011;42713;42.676;23.352;2023-09-07T04:22:27;23.70;;;15.90;;
56830;SDS011;42713;42.676;23.352;2023-09-07T04:28:26;18.52;;;14.65;;
56830;SDS011;42713;42.676;23.352;2023-09-07T04:31:10;21.63;;;15.35;;
56830;SDS011;42713;42.676;23.352;2023-09-07T04:34:28;21.88;;;14.63;;
56830;SDS011;42713;42.676;23.352;2023-09-07T04:43:33;21.98;;;14.80;;
56830;SDS011;42713;42.676;23.352;2023-09-07T04:46:45;20.00;;;14.98;;
56830;SDS011;42713;42.676;23.352;2023-09-07T04:49:14;20.38;;;14.35;;
56830;SDS011;42713;42.676;23.352;2023-09-07T05:04:48;20.30;;;14.50;;
56830;SDS011;42713;42.676;23.352;2023-09-07T05:11:34;19.63;;;13.43;;
56830;SDS011;42713;42.676;23.352;2023-09-07T05:39:17;24.42;;;13.43;;
56830;SDS011;42713;42.676;23.352;2023-09-07T05:41:52;19.92;;;13.45;;
56830;SDS011;42713;42.676;23.352;2023-09-07T05:47:14;20.83;;;13.63;;
56830;SDS011;42713;42.676;23.352;2023-09-07T05:50:13;18.42;;;12.57;;
56830;SDS011;42713;42.676;23.352;2023-09-07T05:52:39;20.25;;;13.40;;
56830;SDS011;42713;42.676;23.352;2023-09-07T05:55:05;20.15;;;13.00;;
56830;SDS011;42713;42.676;23.352;2023-09-07T05:57:31;21.70;;;13.02;;
56830;SDS011;42713;42.676;23.352;2023-09-07T05:59:56;21.10;;;13.02;;
56830;SDS011;42713;42.676;23.352;2023-09-07T06:02:22;20.98;;;13.07;;
56830;SDS011;42713;42.676;23.352;2023-09-07T06:04:47;27.02;;;13.18;;
56830;SDS011;42713;42.676;23.352;2023-09-07T06:07:13;19.98;;;12.57;;
56830;SDS011;42713;42.676;23.352;2023-09-07T06:09:38;23.48;;;12.65;;
56830;SDS011;42713;42.676;23.352;2023-09-07T06:12:04;18.60;;;13.20;;
56830;SDS011;42713;42.676;23.352;2023-09-07T06:14:29;26.08;;;11.52;;
56830;SDS011;42713;42.676;23.352;2023-09-07T06:16:55;25.48;;;12.82;;
56830;SDS011;42713;42.676;23.352;2023-09-07T06:19:21;22.90;;;12.60;;
56830;SDS011;42713;42.676;23.352;2023-09-07T06:21:47;26.10;;;12.38;;
56830;SDS011;42713;42.676;23.352;2023-09-07T06:24:12;32.53;;;12.32;;
56830;SDS011;42713;42.676;23.352;2023-09-07T06:26:38;32.40;;;13.13;;
56830;SDS011;42713;42.676;23.352;2023-09-07T06:29:03;24.35;;;12.10;;
56830;SDS011;42713;42.676;23.352;2023-09-07T06:31:29;32.28;;;12.00;;
56830;SDS011;42713;42.676;23.352;2023-09-07T06:33:54;17.98;;;10.93;;
56830;SDS011;42713;42.676;23.352;2023-09-07T06:36:19;19.35;;;10.07;;
56830;SDS011;42713;42.676;23.352;2023-09-07T06:38:45;14.93;;;9.95;;
56830;SDS011;42713;42.676;23.352;2023-09-07T06:41:11;19.85;;;9.90;;
56830;SDS011;42713;42.676;23.352;2023-09-07T06:43:37;19.75;;;9.65;;
56830;SDS011;42713;42.676;23.352;2023-09-07T06:46:06;18.15;;;9.50;;
56830;SDS011;42713;42.676;23.352;2023-09-07T06:48:38;18.58;;;9.35;;
56830;SDS011;42713;42.676;23.352;2023-09-07T06:51:13;22.30;;;10.07;;
56830;SDS011;42713;42.676;23.352;2023-09-07T06:53:41;31.98;;;10.77;;
56830;SDS011;42713;42.676;23.352;2023-09-07T06:56:13;20.42;;;9.90;;
56830;SDS011;42713;42.676;23.352;2023-09-07T06:58:47;21.13;;;9.07;;
56830;SDS011;42713;42.676;23.352;2023-09-07T07:01:15;15.57;;;9.35;;
56830;SDS011;42713;42.676;23.352;2023-09-07T07:03:41;15.75;;;9.18;;
56830;SDS011;42713;42.676;23.352;2023-09-07T07:06:07;16.63;;;9.02;;
56830;SDS011;42713;42.676;23.352;2023-09-07T07:11:02;18.57;;;8.43;;
56830;SDS011;42713;42.676;23.352;2023-09-07T07:13:28;16.05;;;8.82;;
56830;SDS011;42713;42.676;23.352;2023-09-07T07:15:54;14.07;;;8.70;;
56830;SDS011;42713;42.676;23.352;2023-09-07T07:18:20;14.55;;;8.05;;
56830;SDS011;42713;42.676;23.352;2023-09-07T07:20:45;13.02;;;7.57;;
56830;SDS011;42713;42.676;23.352;2023-09-07T07:23:11;12.73;;;8.48;;
56830;SDS011;42713;42.676;23.352;2023-09-07T07:25:40;14.80;;;8.68;;
56830;SDS011;42713;42.676;23.352;2023-09-07T07:28:06;17.85;;;7.93;;
56830;SDS011;42713;42.676;23.352;2023-09-07T07:30:33;13.98;;;8.98;;
56830;SDS011;42713;42.676;23.352;2023-09-07T07:32:59;26.05;;;8.60;;
56830;SDS011;42713;42.676;23.352;2023-09-07T07:35:25;18.75;;;8.23;;
56830;SDS011;42713;42.676;23.352;2023-09-07T07:37:50;18.23;;;7.53;;
56830;SDS011;42713;42.676;23.352;2023-09-07T07:40:16;15.85;;;6.78;;
56830;SDS011;42713;42.676;23.352;2023-09-07T07:42:46;12.45;;;6.93;;
56830;SDS011;42713;42.676;23.352;2023-09-07T07:45:12;14.15;;;7.07;;
56830;SDS011;42713;42.676;23.352;2023-09-07T07:47:44;15.48;;;7.15;;
56830;SDS011;42713;42.676;23.352;2023-09-07T07:50:10;14.07;;;6.35;;
56830;SDS011;42713;42.676;23.352;2023-09-07T07:52:54;13.23;;;6.70;;
56830;SDS011;42713;42.676;23.352;2023-09-07T07:55:53;13.73;;;6.65;;
56830;SDS011;42713;42.676;23.352;2023-09-07T07:58:13;14.98;;;7.25;;
56830;SDS011;42713;42.676;23.352;2023-09-07T08:00:39;11.90;;;6.10;;
56830;SDS011;42713;42.676;23.352;2023-09-07T08:03:14;11.45;;;5.85;;
56830;SDS011;42713;42.676;23.352;2023-09-07T08:05:40;13.18;;;6.07;;
56830;SDS011;42713;42.676;23.352;2023-09-07T08:08:09;15.02;;;7.00;;
56830;SDS011;42713;42.676;23.352;2023-09-07T08:10:35;14.73;;;6.72;;
56830;SDS011;42713;42.676;23.352;2023-09-07T08:13:06;10.77;;;6.55;;
56830;SDS011;42713;42.676;23.352;2023-09-07T08:15:35;15.18;;;7.65;;
56830;SDS011;42713;42.676;23.352;2023-09-07T08:18:06;15.43;;;6.85;;
56830;SDS011;42713;42.676;23.352;2023-09-07T08:20:41;15.15;;;6.93;;
56830;SDS011;42713;42.676;23.352;2023-09-07T08:23:10;14.52;;;7.55;;
56830;SDS011;42713;42.676;23.352;2023-09-07T08:25:36;10.38;;;6.45;;
56830;SDS011;42713;42.676;23.352;2023-09-07T08:28:15;14.05;;;6.95;;
56830;SDS011;42713;42.676;23.352;2023-09-07T08:30:50;13.52;;;7.10;;
56830;SDS011;42713;42.676;23.352;2023-09-07T08:33:29;15.77;;;6.50;;
56830;SDS011;42713;42.676;23.352;2023-09-07T08:36:07;10.80;;;6.28;;
56830;SDS011;42713;42.676;23.352;2023-09-07T08:38:37;13.32;;;7.30;;
56830;SDS011;42713;42.676;23.352;2023-09-07T08:41:13;15.05;;;7.22;;
56830;SDS011;42713;42.676;23.352;2023-09-07T08:44:01;19.17;;;7.00;;
56830;SDS011;42713;42.676;23.352;2023-09-07T08:46:32;15.65;;;7.57;;
56830;SDS011;42713;42.676;23.352;2023-09-07T08:49:17;13.20;;;7.00;;
56830;SDS011;42713;42.676;23.352;2023-09-07T08:52:00;14.70;;;6.93;;
56830;SDS011;42713;42.676;23.352;2023-09-07T08:54:43;11.70;;;6.53;;
56830;SDS011;42713;42.676;23.352;2023-09-07T08:57:18;11.25;;;5.75;;
56830;SDS011;42713;42.676;23.352;2023-09-07T08:59:53;15.70;;;5.80;;
56830;SDS011;42713;42.676;23.352;2023-09-07T09:02:19;15.07;;;6.10;;
56830;SDS011;42713;42.676;23.352;2023-09-07T09:04:56;10.27;;;5.32;;
56830;SDS011;42713;42.676;23.352;2023-09-07T09:07:37;9.77;;;6.10;;
56830;SDS011;42713;42.676;23.352;2023-09-07T09:10:26;14.55;;;6.03;;
56830;SDS011;42713;42.676;23.352;2023-09-07T09:13:26;17.30;;;6.03;;
56830;SDS011;42713;42.676;23.352;2023-09-07T09:16:40;16.88;;;5.32;;
56830;SDS011;42713;42.676;23.352;2023-09-07T09:19:40;12.05;;;5.20;;
56830;SDS011;42713;42.676;23.352;2023-09-07T09:25:48;11.43;;;5.63;;
56830;SDS011;42713;42.676;23.352;2023-09-07T09:28:23;12.55;;;5.50;;
56830;SDS011;42713;42.676;23.352;2023-09-07T09:31:18;13.05;;;5.85;;
56830;SDS011;42713;42.676;23.352;2023-09-07T09:34:39;11.35;;;5.45;;
56830;SDS011;42713;42.676;23.352;2023-09-07T09:37:23;11.50;;;5.55;;
56830;SDS011;42713;42.676;23.352;2023-09-07T09:40:20;9.63;;;5.15;;
56830;SDS011;42713;42.676;23.352;2023-09-07T09:42:50;13.02;;;5.80;;
56830;SDS011;42713;42.676;23.352;2023-09-07T09:45:23;9.43;;;5.38;;
56830;SDS011;42713;42.676;23.352;2023-09-07T09:47:55;11.10;;;5.00;;
56830;SDS011;42713;42.676;23.352;2023-09-07T09:50:27;10.80;;;4.93;;
56830;SDS011;42713;42.676;23.352;2023-09-07T09:53:06;9.50;;;5.30;;
56830;SDS011;42713;42.676;23.352;2023-09-07T09:55:42;13.30;;;5.25;;
56830;SDS011;42713;42.676;23.352;2023-09-07T09:58:07;12.00;;;5.00;;
56830;SDS011;42713;42.676;23.352;2023-09-07T10:00:33;9.90;;;4.75;;
56830;SDS011;42713;42.676;23.352;2023-09-07T10:03:33;12.05;;;5.03;;
56830;SDS011;42713;42.676;23.352;2023-09-07T10:06:12;10.93;;;5.10;;
56830;SDS011;42713;42.676;23.352;2023-09-07T10:09:07;11.45;;;5.63;;
56830;SDS011;42713;42.676;23.352;2023-09-07T10:11:51;10.45;;;5.00;;
56830;SDS011;42713;42.676;23.352;2023-09-07T10:14:37;10.95;;;5.10;;
56830;SDS011;42713;42.676;23.352;2023-09-07T10:17:20;10.52;;;5.22;;
56830;SDS011;42713;42.676;23.352;2023-09-07T10:20:09;11.05;;;5.10;;
56830;SDS011;42713;42.676;23.352;2023-09-07T10:22:41;10.15;;;4.65;;
56830;SDS011;42713;42.676;23.352;2023-09-07T10:25:31;10.20;;;4.93;;
56830;SDS011;42713;42.676;23.352;2023-09-07T10:28:30;12.07;;;4.47;;
56830;SDS011;42713;42.676;23.352;2023-09-07T10:31:02;10.82;;;5.05;;
56830;SDS011;42713;42.676;23.352;2023-09-07T10:34:07;10.90;;;5.38;;
56830;SDS011;42713;42.676;23.352;2023-09-07T10:44:48;10.77;;;4.53;;
56830;SDS011;42713;42.676;23.352;2023-09-07T10:47:13;11.95;;;5.45;;
56830;SDS011;42713;42.676;23.352;2023-09-07T10:49:39;14.63;;;5.20;;
56830;SDS011;42713;42.676;23.352;2023-09-07T10:52:05;16.10;;;5.10;;
56830;SDS011;42713;42.676;23.352;2023-09-07T10:54:31;11.23;;;5.13;;
56830;SDS011;42713;42.676;23.352;2023-09-07T10:56:57;11.73;;;5.07;;
56830;SDS011;42713;42.676;23.352;2023-09-07T10:59:44;11.48;;;4.57;;
56830;SDS011;42713;42.676;23.352;2023-09-07T11:02:11;14.75;;;5.32;;
56830;SDS011;42713;42.676;23.352;2023-09-07T11:04:36;12.00;;;5.60;;
56830;SDS011;42713;42.676;23.352;2023-09-07T11:07:02;11.98;;;5.40;;
56830;SDS011;42713;42.676;23.352;2023-09-07T11:09:33;17.00;;;5.47;;
56830;SDS011;42713;42.676;23.352;2023-09-07T11:12:05;11.85;;;5.40;;
56830;SDS011;42713;42.676;23.352;2023-09-07T11:14:31;11.75;;;5.65;;
56830;SDS011;42713;42.676;23.352;2023-09-07T11:17:03;12.80;;;4.85;;
56830;SDS011;42713;42.676;23.352;2023-09-07T11:19:32;13.20;;;5.03;;
56830;SDS011;42713;42.676;23.352;2023-09-07T11:21:59;8.97;;;4.77;;
56830;SDS011;42713;42.676;23.352;2023-09-07T11:24:24;15.88;;;4.97;;
56830;SDS011;42713;42.676;23.352;2023-09-07T11:27:00;15.18;;;5.13;;
56830;SDS011;42713;42.676;23.352;2023-09-07T11:29:25;10.50;;;4.32;;
56830;SDS011;42713;42.676;23.352;2023-09-07T11:31:54;12.90;;;4.65;;
56830;SDS011;42713;42.676;23.352;2023-09-07T11:34:51;8.85;;;4.53;;
56830;SDS011;42713;42.676;23.352;2023-09-07T11:37:23;12.75;;;5.03;;
56830;SDS011;42713;42.676;23.352;2023-09-07T11:39:50;10.13;;;4.43;;
56830;SDS011;42713;42.676;23.352;2023-09-07T11:42:15;13.90;;;4.35;;
56830;SDS011;42713;42.676;23.352;2023-09-07T11:44:40;10.93;;;4.10;;
56830;SDS011;42713;42.676;23.352;2023-09-07T11:47:06;11.70;;;4.45;;
56830;SDS011;42713;42.676;23.352;2023-09-07T11:49:32;11.15;;;4.43;;
56830;SDS011;42713;42.676;23.352;2023-09-07T11:51:58;11.32;;;4.00;;
56830;SDS011;42713;42.676;23.352;2023-09-07T11:54:26;9.05;;;4.20;;
56830;SDS011;42713;42.676;23.352;2023-09-07T11:56:58;8.65;;;4.47;;
56830;SDS011;42713;42.676;23.352;2023-09-07T11:59:26;15.23;;;4.70;;
56830;SDS011;42713;42.676;23.352;2023-09-07T12:01:54;10.90;;;4.60;;
56830;SDS011;42713;42.676;23.352;2023-09-07T12:04:36;11.38;;;4.30;;
56830;SDS011;42713;42.676;23.352;2023-09-07T12:07:22;8.93;;;4.30;;
56830;SDS011;42713;42.676;23.352;2023-09-07T12:09:48;8.80;;;3.97;;
56830;SDS011;42713;42.676;23.352;2023-09-07T12:12:15;13.60;;;5.05;;
56830;SDS011;42713;42.676;23.352;2023-09-07T12:14:41;12.02;;;4.22;;
56830;SDS011;42713;42.676;23.352;2023-09-07T12:17:07;16.85;;;4.35;;
56830;SDS011;42713;42.676;23.352;2023-09-07T12:19:32;11.80;;;4.22;;
56830;SDS011;42713;42.676;23.352;2023-09-07T12:22:20;8.63;;;4.10;;
56830;SDS011;42713;42.676;23.352;2023-09-07T12:27:33;9.30;;;4.10;;
56830;SDS011;42713;42.676;23.352;2023-09-07T12:30:04;14.20;;;3.97;;
56830;SDS011;42713;42.676;23.352;2023-09-07T12:32:41;10.82;;;3.85;;
56830;SDS011;42713;42.676;23.352;2023-09-07T12:35:07;9.05;;;4.22;;
56830;SDS011;42713;42.676;23.352;2023-09-07T12:37:36;8.30;;;3.92;;
56830;SDS011;42713;42.676;23.352;2023-09-07T12:40:06;10.48;;;4.05;;
56830;SDS011;42713;42.676;23.352;2023-09-07T12:42:45;11.13;;;4.50;;
56830;SDS011;42713;42.676;23.352;2023-09-07T12:45:13;17.42;;;4.68;;
56830;SDS011;42713;42.676;23.352;2023-09-07T12:47:45;8.60;;;3.83;;
56830;SDS011;42713;42.676;23.352;2023-09-07T12:50:32;8.32;;;3.97;;
56830;SDS011;42713;42.676;23.352;2023-09-07T12:53:03;9.23;;;4.15;;
56830;SDS011;42713;42.676;23.352;2023-09-07T12:55:38;14.43;;;4.40;;
56830;SDS011;42713;42.676;23.352;2023-09-07T12:58:03;11.77;;;4.40;;
56830;SDS011;42713;42.676;23.352;2023-09-07T13:00:32;10.18;;;4.40;;
56830;SDS011;42713;42.676;23.352;2023-09-07T13:03:00;8.65;;;3.85;;
56830;SDS011;42713;42.676;23.352;2023-09-07T13:05:28;7.25;;;3.70;;
56830;SDS011;42713;42.676;23.352;2023-09-07T13:08:03;8.48;;;3.80;;
56830;SDS011;42713;42.676;23.352;2023-09-07T13:10:29;9.77;;;3.70;;
56830;SDS011;42713;42.676;23.352;2023-09-07T13:12:54;11.35;;;4.07;;
56830;SDS011;42713;42.676;23.352;2023-09-07T13:15:20;10.15;;;3.92;;
56830;SDS011;42713;42.676;23.352;2023-09-07T13:17:51;8.48;;;3.83;;
56830;SDS011;42713;42.676;23.352;2023-09-07T13:20:16;11.68;;;3.88;;
56830;SDS011;42713;42.676;23.352;2023-09-07T13:22:44;10.55;;;3.67;;
56830;SDS011;42713;42.676;23.352;2023-09-07T13:25:11;10.85;;;3.85;;
56830;SDS011;42713;42.676;23.352;2023-09-07T13:27:36;12.73;;;3.92;;
56830;SDS011;42713;42.676;23.352;2023-09-07T13:30:02;9.68;;;3.60;;
56830;SDS011;42713;42.676;23.352;2023-09-07T13:32:28;11.88;;;3.40;;
56830;SDS011;42713;42.676;23.352;2023-09-07T13:35:14;9.07;;;3.88;;
56830;SDS011;42713;42.676;23.352;2023-09-07T13:37:43;10.98;;;3.40;;
56830;SDS011;42713;42.676;23.352;2023-09-07T13:40:12;10.43;;;3.80;;
56830;SDS011;42713;42.676;23.352;2023-09-07T13:42:48;14.50;;;3.83;;
56830;SDS011;42713;42.676;23.352;2023-09-07T13:45:18;8.57;;;3.70;;
56830;SDS011;42713;42.676;23.352;2023-09-07T13:47:56;13.77;;;4.03;;
56830;SDS011;42713;42.676;23.352;2023-09-07T13:50:22;10.23;;;3.30;;
56830;SDS011;42713;42.676;23.352;2023-09-07T13:52:57;8.13;;;3.72;;
56830;SDS011;42713;42.676;23.352;2023-09-07T13:55:28;10.02;;;3.97;;
56830;SDS011;42713;42.676;23.352;2023-09-07T13:57:56;10.60;;;4.03;;
56830;SDS011;42713;42.676;23.352;2023-09-07T14:00:29;10.43;;;4.05;;
56830;SDS011;42713;42.676;23.352;2023-09-07T14:03:00;11.10;;;4.43;;
56830;SDS011;42713;42.676;23.352;2023-09-07T14:05:30;13.18;;;4.10;;
56830;SDS011;42713;42.676;23.352;2023-09-07T14:07:55;8.25;;;4.13;;
56830;SDS011;42713;42.676;23.352;2023-09-07T14:10:22;8.90;;;4.13;;
56830;SDS011;42713;42.676;23.352;2023-09-07T14:12:48;7.40;;;3.92;;
56830;SDS011;42713;42.676;23.352;2023-09-07T14:15:14;10.25;;;4.30;;
56830;SDS011;42713;42.676;23.352;2023-09-07T14:17:43;9.43;;;4.22;;
56830;SDS011;42713;42.676;23.352;2023-09-07T14:20:08;9.90;;;3.92;;
56830;SDS011;42713;42.676;23.352;2023-09-07T14:22:38;10.93;;;4.22;;
56830;SDS011;42713;42.676;23.352;2023-09-07T14:25:03;9.50;;;4.13;;
56830;SDS011;42713;42.676;23.352;2023-09-07T14:27:29;8.73;;;4.05;;
56830;SDS011;42713;42.676;23.352;2023-09-07T14:29:55;9.10;;;4.03;;
56830;SDS011;42713;42.676;23.352;2023-09-07T14:32:23;12.15;;;4.05;;
56830;SDS011;42713;42.676;23.352;2023-09-07T14:34:50;11.50;;;3.95;;
56830;SDS011;42713;42.676;23.352;2023-09-07T14:37:16;8.00;;;4.05;;
56830;SDS011;42713;42.676;23.352;2023-09-07T14:39:42;9.55;;;4.35;;
56830;SDS011;42713;42.676;23.352;2023-09-07T14:42:12;10.93;;;4.18;;
56830;SDS011;42713;42.676;23.352;2023-09-07T14:44:42;11.37;;;4.10;;
56830;SDS011;42713;42.676;23.352;2023-09-07T14:47:08;9.10;;;4.30;;
56830;SDS011;42713;42.676;23.352;2023-09-07T14:49:35;9.27;;;4.40;;
56830;SDS011;42713;42.676;23.352;2023-09-07T14:52:01;9.52;;;4.00;;
56830;SDS011;42713;42.676;23.352;2023-09-07T14:54:31;9.82;;;4.10;;
56830;SDS011;42713;42.676;23.352;2023-09-07T14:56:56;10.52;;;4.03;;
56830;SDS011;42713;42.676;23.352;2023-09-07T14:59:22;14.52;;;4.30;;
56830;SDS011;42713;42.676;23.352;2023-09-07T15:01:49;8.38;;;3.95;;
56830;SDS011;42713;42.676;23.352;2023-09-07T15:04:15;11.52;;;4.43;;
56830;SDS011;42713;42.676;23.352;2023-09-07T15:06:42;10.38;;;3.95;;
56830;SDS011;42713;42.676;23.352;2023-09-07T15:09:11;15.60;;;4.60;;
56830;SDS011;42713;42.676;23.352;2023-09-07T15:11:37;9.48;;;3.90;;
56830;SDS011;42713;42.676;23.352;2023-09-07T15:14:02;17.85;;;4.20;;
56830;SDS011;42713;42.676;23.352;2023-09-07T15:16:30;9.77;;;3.60;;
56830;SDS011;42713;42.676;23.352;2023-09-07T15:18:57;8.57;;;4.25;;
56830;SDS011;42713;42.676;23.352;2023-09-07T15:21:26;11.15;;;3.90;;
56830;SDS011;42713;42.676;23.352;2023-09-07T15:23:51;8.57;;;4.10;;
56830;SDS011;42713;42.676;23.352;2023-09-07T15:26:17;9.45;;;3.85;;
56830;SDS011;42713;42.676;23.352;2023-09-07T15:28:43;12.82;;;4.57;;
56830;SDS011;42713;42.676;23.352;2023-09-07T15:31:08;12.40;;;4.75;;
56830;SDS011;42713;42.676;23.352;2023-09-07T15:33:34;8.95;;;3.90;;
56830;SDS011;42713;42.676;23.352;2023-09-07T15:36:00;12.38;;;3.95;;
56830;SDS011;42713;42.676;23.352;2023-09-07T15:38:27;8.05;;;4.15;;
56830;SDS011;42713;42.676;23.352;2023-09-07T15:40:53;13.18;;;3.97;;
56830;SDS011;42713;42.676;23.352;2023-09-07T15:43:22;14.10;;;4.68;;
56830;SDS011;42713;42.676;23.352;2023-09-07T15:45:47;12.52;;;4.60;;
56830;SDS011;42713;42.676;23.352;2023-09-07T15:48:28;24.02;;;4.75;;
56830;SDS011;42713;42.676;23.352;2023-09-07T15:50:57;12.50;;;4.95;;
56830;SDS011;42713;42.676;23.352;2023-09-07T15:56:06;13.73;;;5.43;;
56830;SDS011;42713;42.676;23.352;2023-09-07T15:58:54;14.50;;;4.97;;
56830;SDS011;42713;42.676;23.352;2023-09-07T16:01:22;10.70;;;4.55;;
56830;SDS011;42713;42.676;23.352;2023-09-07T16:03:58;10.95;;;5.10;;
56830;SDS011;42713;42.676;23.352;2023-09-07T16:06:26;14.95;;;5.35;;
56830;SDS011;42713;42.676;23.352;2023-09-07T16:14:14;16.20;;;5.63;;
56830;SDS011;42713;42.676;23.352;2023-09-07T16:16:55;11.02;;;5.30;;
56830;SDS011;42713;42.676;23.352;2023-09-07T16:20:10;10.15;;;4.78;;
56830;SDS011;42713;42.676;23.352;2023-09-07T16:23:30;10.48;;;4.65;;
56830;SDS011;42713;42.676;23.352;2023-09-07T16:26:24;11.45;;;5.40;;
56830;SDS011;42713;42.676;23.352;2023-09-07T16:29:03;8.82;;;4.95;;
56830;SDS011;42713;42.676;23.352;2023-09-07T16:31:59;11.45;;;5.25;;
56830;SDS011;42713;42.676;23.352;2023-09-07T16:34:52;13.52;;;5.10;;
56830;SDS011;42713;42.676;23.352;2023-09-07T16:37:18;10.52;;;5.20;;
56830;SDS011;42713;42.676;23.352;2023-09-07T16:40:36;11.45;;;5.10;;
56830;SDS011;42713;42.676;23.352;2023-09-07T16:42:43;12.13;;;4.60;;
56830;SDS011;42713;42.676;23.352;2023-09-07T16:45:08;11.85;;;4.63;;
56830;SDS011;42713;42.676;23.352;2023-09-07T16:47:34;9.50;;;4.55;;
56830;SDS011;42713;42.676;23.352;2023-09-07T16:50:00;10.70;;;4.60;;
56830;SDS011;42713;42.676;23.352;2023-09-07T16:52:25;8.93;;;4.97;;
56830;SDS011;42713;42.676;23.352;2023-09-07T16:54:53;8.77;;;4.80;;
56830;SDS011;42713;42.676;23.352;2023-09-07T16:57:19;12.90;;;4.60;;
56830;SDS011;42713;42.676;23.352;2023-09-07T16:59:44;11.70;;;5.22;;
56830;SDS011;42713;42.676;23.352;2023-09-07T17:02:12;9.32;;;4.75;;
56830;SDS011;42713;42.676;23.352;2023-09-07T17:04:39;13.95;;;5.20;;
56830;SDS011;42713;42.676;23.352;2023-09-07T17:07:05;12.00;;;5.10;;
56830;SDS011;42713;42.676;23.352;2023-09-07T17:09:31;14.02;;;9.05;;
56830;SDS011;42713;42.676;23.352;2023-09-07T17:11:57;17.05;;;7.28;;
56830;SDS011;42713;42.676;23.352;2023-09-07T17:14:27;21.67;;;9.70;;
56830;SDS011;42713;42.676;23.352;2023-09-07T17:16:54;43.55;;;26.00;;
56830;SDS011;42713;42.676;23.352;2023-09-07T17:19:22;41.72;;;22.50;;
56830;SDS011;42713;42.676;23.352;2023-09-07T17:21:49;49.33;;;21.52;;
56830;SDS011;42713;42.676;23.352;2023-09-07T17:24:17;69.07;;;30.05;;
56830;SDS011;42713;42.676;23.352;2023-09-07T17:26:44;43.58;;;18.95;;
56830;SDS011;42713;42.676;23.352;2023-09-07T17:29:12;35.65;;;16.13;;
56830;SDS011;42713;42.676;23.352;2023-09-07T17:31:37;22.55;;;12.25;;
56830;SDS011;42713;42.676;23.352;2023-09-07T17:34:03;147.90;;;67.85;;
56830;SDS011;42713;42.676;23.352;2023-09-07T17:36:29;62.80;;;28.15;;
56830;SDS011;42713;42.676;23.352;2023-09-07T17:38:54;98.53;;;42.35;;
56830;SDS011;42713;42.676;23.352;2023-09-07T17:41:29;72.60;;;31.40;;
56830;SDS011;42713;42.676;23.352;2023-09-07T17:43:58;78.20;;;33.58;;
56830;SDS011;42713;42.676;23.352;2023-09-07T17:46:24;160.60;;;55.00;;
56830;SDS011;42713;42.676;23.352;2023-09-07T17:48:54;190.00;;;60.03;;
56830;SDS011;42713;42.676;23.352;2023-09-07T17:51:19;141.23;;;44.97;;
56830;SDS011;42713;42.676;23.352;2023-09-07T17:53:45;90.28;;;33.67;;
56830;SDS011;42713;42.676;23.352;2023-09-07T17:56:11;98.43;;;30.83;;
56830;SDS011;42713;42.676;23.352;2023-09-07T17:58:39;35.63;;;15.07;;
56830;SDS011;42713;42.676;23.352;2023-09-07T18:01:13;33.97;;;14.20;;
56830;SDS011;42713;42.676;23.352;2023-09-07T18:03:39;20.15;;;9.05;;
56830;SDS011;42713;42.676;23.352;2023-09-07T18:06:29;19.15;;;7.90;;
56830;SDS011;42713;42.676;23.352;2023-09-07T18:08:59;15.38;;;6.25;;
56830;SDS011;42713;42.676;23.352;2023-09-07T18:11:25;16.67;;;6.38;;
56830;SDS011;42713;42.676;23.352;2023-09-07T18:14:16;11.70;;;5.90;;
56830;SDS011;42713;42.676;23.352;2023-09-07T18:17:03;14.30;;;7.70;;
56830;SDS011;42713;42.676;23.352;2023-09-07T18:47:52;16.25;;;8.38;;
56830;SDS011;42713;42.676;23.352;2023-09-07T19:19:18;14.70;;;6.60;;
56830;SDS011;42713;42.676;23.352;2023-09-07T19:22:47;13.23;;;6.30;;
56830;SDS011;42713;42.676;23.352;2023-09-07T19:25:24;10.88;;;6.18;;
56830;SDS011;42713;42.676;23.352;2023-09-07T19:27:59;18.15;;;9.68;;
56830;SDS011;42713;42.676;23.352;2023-09-07T19:33:18;15.20;;;6.82;;
56830;SDS011;42713;42.676;23.352;2023-09-07T19:36:20;13.60;;;6.50;;
56830;SDS011;42713;42.676;23.352;2023-09-07T19:39:10;13.60;;;6.63;;
56830;SDS011;42713;42.676;23.352;2023-09-07T19:44:47;14.20;;;6.05;;
56830;SDS011;42713;42.676;23.352;2023-09-07T19:47:25;15.45;;;8.07;;
56830;SDS011;42713;42.676;23.352;2023-09-07T19:49:59;13.40;;;7.75;;
56830;SDS011;42713;42.676;23.352;2023-09-07T19:53:07;17.85;;;7.03;;
56830;SDS011;42713;42.676;23.352;2023-09-07T20:09:20;21.80;;;12.45;;
56830;SDS011;42713;42.676;23.352;2023-09-07T20:12:17;25.45;;;14.50;;
56830;SDS011;42713;42.676;23.352;2023-09-07T20:14:45;20.50;;;13.20;;
56830;SDS011;42713;42.676;23.352;2023-09-07T20:17:27;20.38;;;11.02;;
56830;SDS011;42713;42.676;23.352;2023-09-07T20:27:58;14.15;;;8.38;;
56830;SDS011;42713;42.676;23.352;2023-09-07T20:30:24;15.13;;;8.32;;
56830;SDS011;42713;42.676;23.352;2023-09-07T20:32:50;16.08;;;8.85;;
56830;SDS011;42713;42.676;23.352;2023-09-07T20:35:15;21.30;;;12.48;;
56830;SDS011;42713;42.676;23.352;2023-09-07T20:37:41;18.33;;;12.50;;
56830;SDS011;42713;42.676;23.352;2023-09-07T20:40:06;25.13;;;14.63;;